Main page
METAR-TAF:

METAR-TAF

Airports :

Herat International Airport

Herat, Afghanistan

latitude: 34-13N, longitude: 062-13E, elevation: 964 m

Current weather observation

The report was made 38 minutes ago, at 03:55 UTC
Wind 2 kt from variable directions
Temperature 0°C
Humidity 69%
Pressure 1025 hPa
Visibility 10 km or more
no clouds below 1500 m and no cumulonimbus

METAR: OAHR 210355Z VRB02KT CAVOK 00/M05 Q1025 RMK A3029 BLU

Time: 09:03 (04:33 UTC)

Forecast

The report was made 3 hours and 33 minutes ago, at 01:00 UTC
Forecast valid from 21 at 01 UTC to 21 at 24 UTC
Wind 3 kt from variable directions
Visibility 10 km or more
no clouds below 1500 m and no cumulonimbus
Becoming
from 21 at 08 UTC to 21 at 10 UTC
Wind 8 kt from the Northwest
Becoming
from 21 at 13 UTC to 21 at 15 UTC
Wind 6 kt from the North/Northeast

TAF: OAHR 210100Z 2101/2124 VRB03KT CAVOK BECMG 2108/2110 31008KT BECMG 2113/2115 02006KT

Weather observations and forecasts of more than 4000 airports (METAR and TAF reports).

The available stations are represented by yellow and red dots on the map.

Hover mouse over dot to see the name of the station.

Then click to see weather observations and forecasts.

To change the map : click on the green buttons with a black cross to zoom in, on the green button with a dash to zoom out, or on the green arrows for adjacent maps.


METAR-TAF: